createdAt,value
2019-04-11T00:00:43.781Z,1.77
2019-04-11T00:03:15.168Z,1.78
2019-04-11T00:05:45.386Z,1.80
2019-04-11T00:08:15.014Z,1.81
2019-04-11T00:10:45.083Z,1.78
2019-04-11T00:13:21.540Z,1.75
2019-04-11T00:15:46.030Z,1.79
2019-04-11T00:18:16.639Z,1.77
2019-04-11T00:20:46.527Z,1.75
2019-04-11T00:23:16.319Z,1.77
2019-04-11T00:25:45.917Z,1.68
2019-04-11T00:28:15.537Z,1.63
2019-04-11T00:30:45.387Z,1.58
2019-04-11T00:33:16.094Z,1.48
2019-04-11T00:35:46.081Z,1.45
2019-04-11T00:38:16.024Z,1.38
2019-04-11T00:40:45.876Z,1.32
2019-04-11T00:43:27.203Z,1.32
2019-04-11T00:45:47.709Z,1.29
2019-04-11T00:48:17.559Z,1.24
2019-04-11T00:50:47.599Z,1.21
2019-04-11T00:53:18.856Z,1.21
2019-04-11T00:55:48.837Z,1.19
2019-04-11T00:58:19.285Z,1.19
2019-04-11T01:00:49.443Z,1.17
2019-04-11T01:03:20.116Z,1.19
2019-04-11T01:05:49.977Z,1.20
2019-04-11T01:08:19.849Z,1.21
2019-04-11T01:10:49.781Z,1.21
2019-04-11T01:13:20.949Z,1.24
2019-04-11T01:15:54.982Z,1.17
2019-04-11T01:18:25.775Z,1.17
2019-04-11T01:20:55.689Z,1.13
2019-04-11T01:23:27.102Z,1.09
2019-04-11T01:25:57.035Z,1.08
2019-04-11T01:28:26.869Z,1.08
2019-04-11T01:31:01.077Z,1.09
2019-04-11T01:33:31.766Z,1.18
2019-04-11T01:36:01.396Z,1.13
2019-04-11T01:38:34.632Z,1.16
2019-04-11T01:41:04.518Z,1.11
2019-04-11T01:43:34.312Z,1.10
2019-04-11T01:46:03.998Z,1.00
2019-04-11T01:48:35.431Z,1.00
2019-04-11T01:51:05.384Z,0.98
2019-04-11T01:53:35.285Z,0.99
2019-04-11T01:56:05.252Z,1.01
2019-04-11T01:58:35.127Z,1.03
2019-04-11T02:01:08.819Z,1.08
2019-04-11T02:03:57.330Z,1.07
2019-04-11T02:06:27.359Z,1.02
2019-04-11T02:08:57.747Z,1.00
2019-04-11T02:11:27.742Z,0.97
2019-04-11T02:14:08.031Z,0.99
2019-04-11T02:16:29.342Z,0.96
2019-04-11T02:18:59.554Z,1.00
2019-04-11T02:21:29.578Z,1.04
2019-04-11T02:24:03.744Z,1.06
2019-04-11T02:26:35.660Z,1.05
2019-04-11T02:29:05.569Z,0.93
2019-04-11T02:31:36.950Z,0.94
2019-04-11T02:34:08.707Z,0.93
2019-04-11T02:36:38.633Z,0.91
2019-04-11T02:39:14.975Z,0.88
2019-04-11T02:41:42.168Z,0.87
2019-04-11T02:44:30.650Z,0.88
2019-04-11T02:46:53.016Z,0.91
2019-04-11T02:49:15.047Z,0.88
2019-04-11T02:51:45.088Z,0.91
2019-04-11T02:54:15.924Z,1.02
2019-04-11T02:56:48.824Z,1.00
2019-04-11T02:59:19.523Z,0.94
2019-04-11T03:01:50.849Z,0.94
2019-04-11T03:04:22.748Z,0.95
2019-04-11T03:06:52.467Z,0.97
2019-04-11T03:09:23.996Z,0.94
2019-04-11T03:11:54.751Z,0.91
2019-04-11T03:14:25.170Z,0.91
2019-04-11T03:17:03.656Z,0.94
2019-04-11T03:19:42.199Z,0.93
2019-04-11T03:21:59.398Z,0.90
2019-04-11T03:24:30.993Z,0.91
2019-04-11T03:27:04.475Z,0.88
2019-04-11T03:29:33.766Z,0.89
2019-04-11T03:32:40.164Z,0.88
2019-04-11T03:35:23.286Z,0.82
2019-04-11T03:37:26.227Z,0.77
2019-04-11T03:40:00.653Z,0.73
2019-04-11T03:42:28.654Z,0.65
2019-04-11T03:44:47.713Z,0.65
2019-04-11T03:47:29.277Z,0.56
2019-04-11T03:49:52.059Z,0.53
2019-04-11T03:52:19.329Z,0.49
2019-04-11T03:54:49.728Z,0.47
2019-04-11T03:57:21.308Z,0.44
2019-04-11T03:59:52.036Z,0.45
2019-04-11T04:02:22.467Z,0.46
2019-04-11T04:04:53.931Z,0.45
2019-04-11T04:07:24.260Z,0.45
2019-04-11T04:09:54.524Z,0.50
2019-04-11T04:12:24.527Z,0.49
2019-04-11T04:15:31.395Z,0.49
2019-04-11T04:18:10.195Z,0.50
2019-04-11T04:20:53.175Z,0.49
2019-04-11T04:23:24.920Z,0.52
2019-04-11T04:25:55.297Z,0.54
2019-04-11T04:28:24.933Z,0.58
2019-04-11T04:30:54.693Z,0.59
2019-04-11T04:33:26.340Z,0.62
2019-04-11T04:35:56.094Z,0.63
2019-04-11T04:38:27.310Z,0.67
2019-04-11T04:41:13.497Z,0.75
2019-04-11T04:43:31.804Z,0.83
2019-04-11T04:46:20.330Z,0.87
2019-04-11T04:48:34.369Z,0.93
2019-04-11T04:51:08.872Z,0.92
2019-04-11T04:53:35.773Z,0.94
2019-04-11T04:56:06.769Z,0.93
2019-04-11T04:58:37.885Z,0.95
2019-04-11T05:01:07.864Z,0.95
2019-04-11T05:03:37.896Z,0.98
2019-04-11T05:06:07.810Z,1.03
2019-04-11T05:08:38.900Z,1.04
2019-04-11T05:11:08.672Z,1.11
2019-04-11T05:13:38.803Z,1.12
2019-04-11T05:16:17.208Z,1.16
2019-04-11T05:18:41.990Z,1.20
2019-04-11T05:21:12.857Z,1.92
2019-04-11T05:23:42.977Z,2.12
2019-04-11T05:26:12.684Z,3.53
2019-04-11T05:28:42.306Z,3.01
2019-04-11T05:31:12.301Z,2.78
2019-04-11T05:33:41.925Z,2.66
2019-04-11T05:36:12.347Z,2.53
2019-04-11T05:38:42.205Z,2.44
2019-04-11T05:41:13.776Z,2.41
2019-04-11T05:43:43.879Z,2.34
2019-04-11T05:46:26.342Z,2.29
2019-04-11T05:48:55.126Z,2.29
2019-04-11T05:51:25.260Z,2.33
2019-04-11T05:53:57.518Z,2.30
2019-04-11T05:56:31.841Z,2.35
2019-04-11T05:59:05.947Z,2.45
2019-04-11T06:01:38.318Z,2.55
2019-04-11T06:04:14.564Z,2.63
2019-04-11T06:06:44.348Z,2.58
2019-04-11T06:09:18.855Z,2.68
2019-04-11T06:11:58.613Z,2.77
2019-04-11T06:14:29.873Z,2.88
2019-04-11T06:17:01.180Z,2.92
2019-04-11T06:19:50.516Z,2.88
2019-04-11T06:22:21.333Z,2.97
2019-04-11T06:25:06.179Z,3.07
2019-04-11T06:27:41.152Z,3.09
2019-04-11T06:30:15.920Z,3.24
2019-04-11T06:33:04.616Z,3.33
2019-04-11T06:35:42.077Z,3.38
2019-04-11T06:38:30.071Z,3.47
2019-04-11T06:41:01.971Z,3.57
2019-04-11T06:43:42.658Z,3.64
2019-04-11T06:46:13.910Z,3.74
2019-04-11T06:48:45.523Z,3.89
2019-04-11T06:51:16.890Z,4.03
2019-04-11T06:53:48.479Z,4.18
2019-04-11T06:56:23.230Z,4.31
2019-04-11T06:58:55.588Z,4.45
2019-04-11T07:01:28.011Z,4.49
2019-04-11T07:03:59.414Z,4.52
2019-04-11T07:06:31.422Z,4.60
2019-04-11T07:09:09.492Z,4.71
2019-04-11T07:11:40.761Z,4.83
2019-04-11T07:14:29.056Z,4.79
2019-04-11T07:17:16.303Z,4.81
2019-04-11T07:19:53.658Z,4.93
2019-04-11T07:22:41.149Z,5.04
2019-04-11T07:25:27.293Z,5.12
2019-04-11T07:28:05.599Z,5.37
2019-04-11T07:30:37.466Z,5.58
2019-04-11T07:33:15.943Z,5.74
2019-04-11T07:35:50.821Z,5.86
2019-04-11T07:38:22.778Z,5.97
2019-04-11T07:40:54.640Z,6.01
2019-04-11T07:43:24.950Z,6.01
2019-04-11T07:46:09.036Z,6.02
2019-04-11T07:48:38.689Z,6.07
2019-04-11T07:51:11.026Z,6.17
2019-04-11T07:53:41.843Z,6.19
2019-04-11T07:56:13.226Z,6.33
2019-04-11T07:58:45.464Z,6.56
2019-04-11T08:01:17.645Z,6.61
2019-04-11T08:03:51.623Z,6.73
2019-04-11T08:06:33.076Z,6.91
2019-04-11T08:09:22.113Z,7.00
2019-04-11T08:11:53.447Z,7.14
2019-04-11T08:14:40.354Z,7.27
2019-04-11T08:17:25.947Z,7.38
2019-04-11T08:19:57.442Z,7.56
2019-04-11T08:22:28.749Z,7.77
2019-04-11T08:25:00.851Z,7.90
2019-04-11T08:27:54.884Z,7.95
2019-04-11T08:30:20.488Z,7.93
2019-04-11T08:32:58.253Z,8.27
2019-04-11T08:35:34.516Z,8.10
2019-04-11T08:38:10.169Z,8.24
2019-04-11T08:40:53.707Z,8.51
2019-04-11T08:43:33.751Z,8.71
2019-04-11T08:46:06.621Z,8.95
2019-04-11T08:48:39.237Z,9.38
2019-04-11T08:51:11.313Z,9.63
2019-04-11T08:53:45.772Z,10.05
2019-04-11T08:56:17.051Z,9.71
2019-04-11T08:59:11.481Z,10.01
2019-04-11T09:01:42.293Z,9.91
2019-04-11T09:04:23.895Z,10.21
2019-04-11T09:06:56.792Z,9.81
2019-04-11T09:09:47.395Z,9.52
2019-04-11T09:12:18.415Z,9.66
2019-04-11T09:14:50.579Z,9.63
2019-04-11T09:17:23.374Z,9.42
2019-04-11T09:19:55.045Z,9.58
2019-04-11T09:22:29.383Z,9.29
2019-04-11T09:25:10.755Z,9.12
2019-04-11T09:27:49.022Z,8.94
2019-04-11T09:30:26.118Z,8.73
2019-04-11T09:32:58.272Z,8.70
2019-04-11T09:35:47.589Z,8.74
2019-04-11T09:38:22.193Z,8.69
2019-04-11T09:41:00.493Z,8.71
2019-04-11T09:43:35.560Z,10.01
2019-04-11T09:46:26.124Z,10.20
2019-04-11T09:49:06.673Z,9.98
2019-04-11T09:51:40.558Z,10.04
2019-04-11T09:54:12.117Z,10.49
2019-04-11T09:56:47.175Z,10.82
2019-04-11T09:59:34.489Z,10.78
2019-04-11T10:02:11.739Z,10.62
2019-04-11T10:04:43.794Z,10.20
2019-04-11T10:07:28.076Z,9.96
2019-04-11T10:10:02.689Z,9.61
2019-04-11T10:12:40.615Z,9.18
2019-04-11T10:15:13.430Z,9.02
2019-04-11T10:18:01.095Z,8.87
2019-04-11T10:20:30.830Z,8.64
2019-04-11T10:23:03.356Z,8.61
2019-04-11T10:25:35.248Z,8.53
2019-04-11T10:28:22.833Z,8.64
2019-04-11T10:31:06.401Z,8.53
2019-04-11T10:33:49.640Z,8.47
2019-04-11T10:36:31.650Z,8.42
2019-04-11T10:39:02.923Z,8.43
2019-04-11T10:41:50.450Z,8.56
2019-04-11T10:44:30.314Z,8.63
2019-04-11T10:47:07.246Z,8.74
2019-04-11T10:49:38.998Z,8.86
2019-04-11T10:52:20.317Z,8.95
2019-04-11T10:55:09.528Z,8.91
2019-04-11T10:57:57.270Z,8.77
2019-04-11T11:00:31.452Z,8.81
2019-04-11T11:03:09.583Z,9.00
2019-04-11T11:05:47.261Z,9.15
2019-04-11T11:08:19.462Z,9.29
2019-04-11T11:10:52.132Z,9.44
2019-04-11T11:13:23.650Z,9.46
2019-04-11T11:15:54.244Z,9.27
2019-04-11T11:18:54.018Z,9.37
2019-04-11T11:21:05.496Z,9.45
2019-04-11T11:23:45.103Z,9.59
2019-04-11T11:26:19.805Z,9.69
2019-04-11T11:28:50.845Z,9.71
2019-04-11T11:31:24.626Z,9.62
2019-04-11T11:33:56.545Z,9.53
2019-04-11T11:36:48.096Z,9.40
2019-04-11T11:39:26.893Z,9.32
2019-04-11T11:42:14.487Z,9.27
2019-04-11T11:44:46.730Z,9.03
2019-04-11T11:47:38.042Z,8.83
2019-04-11T11:50:15.616Z,8.88
2019-04-11T11:52:48.977Z,8.88
2019-04-11T11:55:29.514Z,8.86
2019-04-11T11:58:01.955Z,8.75
2019-04-11T12:00:33.498Z,8.78
2019-04-11T12:03:10.889Z,8.71
2019-04-11T12:05:48.094Z,8.88
2019-04-11T12:08:22.299Z,8.77
2019-04-11T12:10:53.791Z,8.84
2019-04-11T12:13:39.467Z,8.88
2019-04-11T12:16:10.017Z,8.88
2019-04-11T12:18:48.419Z,8.90
2019-04-11T12:21:29.387Z,8.93
2019-04-11T12:24:05.460Z,8.89
2019-04-11T12:26:33.825Z,8.79
2019-04-11T12:29:05.984Z,8.64
2019-04-11T12:31:37.259Z,8.63
2019-04-11T12:34:08.518Z,8.71
2019-04-11T12:36:44.597Z,8.81
2019-04-11T12:39:28.961Z,8.86
2019-04-11T12:42:00.236Z,8.76
2019-04-11T12:44:31.528Z,8.48
2019-04-11T12:47:07.543Z,8.61
2019-04-11T12:49:52.996Z,8.64
2019-04-11T12:52:24.243Z,8.77
2019-04-11T12:54:55.527Z,8.65
2019-04-11T12:57:35.857Z,8.69
2019-04-11T13:00:12.052Z,8.64
2019-04-11T13:02:46.433Z,8.55
2019-04-11T13:05:18.754Z,8.47
2019-04-11T13:08:05.182Z,8.49
2019-04-11T13:10:36.154Z,8.49
2019-04-11T13:13:23.882Z,8.53
2019-04-11T13:15:58.015Z,8.58
2019-04-11T13:18:45.193Z,8.63
2019-04-11T13:21:19.175Z,8.79
2019-04-11T13:23:57.032Z,8.80
2019-04-11T13:26:44.304Z,8.77
2019-04-11T13:29:30.665Z,8.72
2019-04-11T13:32:18.437Z,8.70
2019-04-11T13:34:50.270Z,8.63
2019-04-11T13:37:37.498Z,8.50
2019-04-11T13:40:08.888Z,8.47
2019-04-11T13:42:40.176Z,8.51
2019-04-11T13:45:11.497Z,8.45
2019-04-11T13:47:58.417Z,8.44
2019-04-11T13:50:28.107Z,8.51
2019-04-11T13:52:59.403Z,8.51
2019-04-11T13:55:29.028Z,8.46
2019-04-11T13:58:16.448Z,8.31
2019-04-11T14:00:47.395Z,8.33
2019-04-11T14:03:24.447Z,8.33
2019-04-11T14:05:56.110Z,8.36
2019-04-11T14:08:36.104Z,8.37
2019-04-11T14:11:10.347Z,8.35
2019-04-11T14:13:44.116Z,8.26
2019-04-11T14:16:15.450Z,8.32
2019-04-11T14:18:55.242Z,8.36
2019-04-11T14:21:30.232Z,8.43
2019-04-11T14:24:01.528Z,8.40
2019-04-11T14:26:35.802Z,8.33
2019-04-11T14:29:13.127Z,8.16
2019-04-11T14:31:44.500Z,8.28
2019-04-11T14:34:19.080Z,8.27
2019-04-11T14:36:53.885Z,8.18
2019-04-11T14:39:28.410Z,8.02
2019-04-11T14:42:05.406Z,8.07
2019-04-11T14:44:39.831Z,8.02
2019-04-11T14:47:11.115Z,8.04
2019-04-11T14:49:41.329Z,8.05
2019-04-11T14:52:17.027Z,7.96
2019-04-11T14:54:48.974Z,7.93
2019-04-11T14:57:17.838Z,7.97
2019-04-11T14:59:54.867Z,7.98
2019-04-11T15:02:26.162Z,7.92
2019-04-11T15:04:57.413Z,7.83
2019-04-11T15:07:27.631Z,7.76
2019-04-11T15:10:17.028Z,7.78
2019-04-11T15:12:48.169Z,7.83
2019-04-11T15:15:31.957Z,7.82
2019-04-11T15:18:03.284Z,7.79
2019-04-11T15:20:37.293Z,7.67
2019-04-11T15:23:11.506Z,7.69
2019-04-11T15:25:45.288Z,7.63
2019-04-11T15:28:19.488Z,7.67
2019-04-11T15:30:50.787Z,7.71
2019-04-11T15:33:38.336Z,7.68
2019-04-11T15:36:10.507Z,7.59
2019-04-11T15:38:50.713Z,7.51
2019-04-11T15:41:21.093Z,7.47
2019-04-11T15:43:58.227Z,7.52
2019-04-11T15:46:30.170Z,7.56
2019-04-11T15:49:21.904Z,7.56
2019-04-11T15:51:51.134Z,7.54
2019-04-11T15:54:38.481Z,7.43
2019-04-11T15:57:13.354Z,7.44
2019-04-11T15:59:44.707Z,7.40
2019-04-11T16:02:31.951Z,7.38
2019-04-11T16:05:03.226Z,7.37
2019-04-11T16:07:40.568Z,7.28
2019-04-11T16:10:11.917Z,7.16
2019-04-11T16:12:59.512Z,7.12
2019-04-11T16:15:31.171Z,7.09
2019-04-11T16:18:18.240Z,7.00
2019-04-11T16:20:51.300Z,6.92
2019-04-11T16:23:28.233Z,6.92
2019-04-11T16:25:58.066Z,6.93
2019-04-11T16:28:45.320Z,6.94
2019-04-11T16:31:14.964Z,6.87
2019-04-11T16:33:49.763Z,6.93
2019-04-11T16:36:26.959Z,6.82
2019-04-11T16:39:03.087Z,6.83
2019-04-11T16:41:49.347Z,6.81
2019-04-11T16:44:29.263Z,6.84
2019-04-11T16:47:09.639Z,6.85
2019-04-11T16:49:39.294Z,6.82
2019-04-11T16:52:09.072Z,6.79
2019-04-11T16:54:39.918Z,6.77
2019-04-11T16:57:13.557Z,6.67
2019-04-11T16:59:41.625Z,6.61
2019-04-11T17:02:11.287Z,6.59
2019-04-11T17:04:40.960Z,6.57
2019-04-11T17:07:12.244Z,6.52
2019-04-11T17:09:43.508Z,6.54
2019-04-11T17:12:13.257Z,6.51
2019-04-11T17:14:42.861Z,6.44
2019-04-11T17:17:15.199Z,6.49
2019-04-11T17:19:43.987Z,6.38
2019-04-11T17:22:13.675Z,6.39
2019-04-11T17:24:43.340Z,6.38
2019-04-11T17:27:12.994Z,6.32
2019-04-11T17:29:42.603Z,6.26
2019-04-11T17:32:13.992Z,6.24
2019-04-11T17:34:43.708Z,6.14
2019-04-11T17:37:13.402Z,6.21
2019-04-11T17:39:43.018Z,6.25
2019-04-11T17:42:13.283Z,6.30
2019-04-11T17:44:43.773Z,6.26
2019-04-11T17:47:13.438Z,6.25
2019-04-11T17:49:43.071Z,6.23
2019-04-11T17:52:12.790Z,6.27
2019-04-11T17:54:42.413Z,6.28
2019-04-11T17:57:12.090Z,6.31
2019-04-11T17:59:41.702Z,6.27
2019-04-11T18:02:11.578Z,6.27
2019-04-11T18:04:43.714Z,6.26
2019-04-11T18:07:16.788Z,6.25
2019-04-11T18:09:44.085Z,6.04
2019-04-11T18:12:13.747Z,6.03
2019-04-11T18:14:43.406Z,5.94
2019-04-11T18:17:13.061Z,5.83
2019-04-11T18:19:42.734Z,5.82
2019-04-11T18:22:13.698Z,5.77
2019-04-11T18:24:43.968Z,5.75
2019-04-11T18:27:13.593Z,5.80
2019-04-11T18:29:43.270Z,5.81
2019-04-11T18:32:12.887Z,5.83
2019-04-11T18:34:42.580Z,5.74
2019-04-11T18:37:12.200Z,5.77
2019-04-11T18:39:41.865Z,5.71
2019-04-11T18:42:11.500Z,5.64
2019-04-11T18:44:41.168Z,5.62
2019-04-11T18:47:10.799Z,5.59
2019-04-11T18:49:40.480Z,5.63
2019-04-11T18:52:19.131Z,5.65
2019-04-11T18:54:42.692Z,5.68
2019-04-11T18:57:14.012Z,5.68
2019-04-11T18:59:43.675Z,5.62
2019-04-11T19:02:13.369Z,5.60
2019-04-11T19:04:43.035Z,5.53
2019-04-11T19:07:13.265Z,5.52
2019-04-11T19:09:43.933Z,5.56
2019-04-11T19:12:15.938Z,5.51
2019-04-11T19:14:46.022Z,5.54
2019-04-11T19:17:16.450Z,5.53
2019-04-11T19:19:48.616Z,5.51
2019-04-11T19:22:19.726Z,5.56
2019-04-11T19:24:48.915Z,5.58
2019-04-11T19:27:20.710Z,5.53
2019-04-11T19:29:50.328Z,5.52
2019-04-11T19:32:19.972Z,5.53
2019-04-11T19:34:50.191Z,5.46
2019-04-11T19:37:19.803Z,5.34
2019-04-11T19:39:50.538Z,5.29
2019-04-11T19:42:20.285Z,5.31
2019-04-11T19:44:50.398Z,5.39
2019-04-11T19:47:22.377Z,5.32
2019-04-11T19:49:52.908Z,5.28
2019-04-11T19:52:22.557Z,5.29
2019-04-11T19:54:53.084Z,5.31
2019-04-11T19:57:22.707Z,5.34
2019-04-11T19:59:55.420Z,5.32
2019-04-11T20:02:25.517Z,5.30
2019-04-11T20:04:57.455Z,5.27
2019-04-11T20:07:26.966Z,5.23
2019-04-11T20:09:58.505Z,5.18
2019-04-11T20:12:30.122Z,5.19
2019-04-11T20:15:00.415Z,5.16
2019-04-11T20:17:30.039Z,5.23
2019-04-11T20:20:01.611Z,5.27
2019-04-11T20:22:31.023Z,5.32
2019-04-11T20:25:00.729Z,5.30
2019-04-11T20:27:30.360Z,5.32
2019-04-11T20:30:00.013Z,5.27
2019-04-11T20:32:30.607Z,5.26
2019-04-11T20:35:01.084Z,5.31
2019-04-11T20:37:39.204Z,5.31
2019-04-11T20:40:02.327Z,5.21
2019-04-11T20:42:31.984Z,5.16
2019-04-11T20:45:01.645Z,5.25
2019-04-11T20:47:31.343Z,5.21
2019-04-11T20:50:07.274Z,5.13
2019-04-11T20:52:32.772Z,5.03
2019-04-11T20:55:03.390Z,5.01
2019-04-11T20:57:33.097Z,4.98
2019-04-11T21:00:02.767Z,4.98
2019-04-11T21:02:32.410Z,5.00
2019-04-11T21:05:02.133Z,5.01
2019-04-11T21:07:32.513Z,4.97
2019-04-11T21:10:04.046Z,5.01
2019-04-11T21:12:36.985Z,4.97
2019-04-11T21:15:07.677Z,5.04
2019-04-11T21:17:37.391Z,5.02
2019-04-11T21:20:08.046Z,5.01
2019-04-11T21:22:37.703Z,5.08
2019-04-11T21:25:07.658Z,5.08
2019-04-11T21:27:37.335Z,5.02
2019-04-11T21:30:08.609Z,4.93
2019-04-11T21:32:38.406Z,4.87
2019-04-11T21:35:08.191Z,4.76
2019-04-11T21:37:37.995Z,4.79
2019-04-11T21:40:07.986Z,4.94
2019-04-11T21:42:37.783Z,4.90
2019-04-11T21:45:07.511Z,4.86
2019-04-11T21:47:38.094Z,4.84
2019-04-11T21:50:09.436Z,4.79
2019-04-11T21:52:43.332Z,4.79
2019-04-11T21:55:15.239Z,4.78
2019-04-11T21:57:43.571Z,4.80
2019-04-11T22:00:22.166Z,4.81
2019-04-11T22:02:51.975Z,4.83
2019-04-11T22:05:21.403Z,4.79
2019-04-11T22:07:51.716Z,4.76
2019-04-11T22:10:21.340Z,4.71
2019-04-11T22:12:51.647Z,4.71
2019-04-11T22:15:21.270Z,4.74
2019-04-11T22:17:52.044Z,4.76
2019-04-11T22:20:21.766Z,4.78
2019-04-11T22:22:51.642Z,4.75
2019-04-11T22:25:21.685Z,4.79
2019-04-11T22:27:53.759Z,4.73
2019-04-11T22:30:25.323Z,4.71
2019-04-11T22:32:58.001Z,4.72
2019-04-11T22:35:29.040Z,4.65
2019-04-11T22:38:00.754Z,4.58
2019-04-11T22:40:31.993Z,4.59
2019-04-11T22:43:01.722Z,4.65
2019-04-11T22:45:31.338Z,4.62
2019-04-11T22:48:00.994Z,4.67
2019-04-11T22:50:30.618Z,4.67
2019-04-11T22:53:00.274Z,4.64
2019-04-11T22:55:29.905Z,4.63
2019-04-11T22:57:59.551Z,4.66
2019-04-11T23:00:29.166Z,4.65
2019-04-11T23:03:17.030Z,4.62
2019-04-11T23:05:46.949Z,4.67
2019-04-11T23:08:19.240Z,4.59
2019-04-11T23:10:48.478Z,4.65
2019-04-11T23:13:18.577Z,4.66
2019-04-11T23:15:48.201Z,4.65
2019-04-11T23:18:17.953Z,4.70
2019-04-11T23:20:47.575Z,4.69
2019-04-11T23:23:17.215Z,4.67
2019-04-11T23:25:46.825Z,4.66
2019-04-11T23:28:16.564Z,4.62
2019-04-11T23:30:49.539Z,4.64
2019-04-11T23:33:18.920Z,4.69
2019-04-11T23:35:51.170Z,4.74
2019-04-11T23:38:23.610Z,4.68
2019-04-11T23:40:51.887Z,4.63
2019-04-11T23:43:21.608Z,4.56
2019-04-11T23:45:51.814Z,4.57
2019-04-11T23:48:23.753Z,4.56
2019-04-11T23:50:55.113Z,4.58
2019-04-11T23:53:28.182Z,4.57
2019-04-11T23:55:55.512Z,4.53
2019-04-11T23:58:25.283Z,4.56
